sensor_id;sensor_type;location;lat;lon;timestamp;pressure;altitude;pressure_sealevel;temperature;humidity
42177;BME280;28126;51.060;19.460;2022-11-20T00:02:57;98317.06;;;24.62;27.64
42177;BME280;28126;51.060;19.460;2022-11-20T00:06:01;98314.03;;;24.61;27.67
42177;BME280;28126;51.060;19.460;2022-11-20T00:09:04;98311.77;;;24.58;27.69
42177;BME280;28126;51.060;19.460;2022-11-20T00:12:07;98299.44;;;24.55;27.72
42177;BME280;28126;51.060;19.460;2022-11-20T00:15:10;98306.75;;;24.55;27.69
42177;BME280;28126;51.060;19.460;2022-11-20T00:18:13;98307.59;;;24.55;27.73
42177;BME280;28126;51.060;19.460;2022-11-20T00:21:27;98299.89;;;24.52;27.83
42177;BME280;28126;51.060;19.460;2022-11-20T00:24:29;98301.77;;;24.52;27.81
42177;BME280;28126;51.060;19.460;2022-11-20T00:27:31;98298.64;;;24.48;27.83
42177;BME280;28126;51.060;19.460;2022-11-20T00:30:33;98301.87;;;24.48;27.84
42177;BME280;28126;51.060;19.460;2022-11-20T00:33:36;98289.05;;;24.46;27.87
42177;BME280;28126;51.060;19.460;2022-11-20T00:36:39;98295.02;;;24.45;27.87
42177;BME280;28126;51.060;19.460;2022-11-20T00:39:41;98295.42;;;24.42;27.93
42177;BME280;28126;51.060;19.460;2022-11-20T00:42:44;98289.72;;;24.41;27.95
42177;BME280;28126;51.060;19.460;2022-11-20T00:45:47;98292.95;;;24.41;27.95
42177;BME280;28126;51.060;19.460;2022-11-20T00:48:50;98291.80;;;24.39;27.99
42177;BME280;28126;51.060;19.460;2022-11-20T00:51:53;98283.86;;;24.38;28.01
42177;BME280;28126;51.060;19.460;2022-11-20T00:54:56;98282.71;;;24.36;28.01
42177;BME280;28126;51.060;19.460;2022-11-20T00:58:00;98289.74;;;24.35;28.06
42177;BME280;28126;51.060;19.460;2022-11-20T01:01:11;98281.91;;;24.36;28.01
42177;BME280;28126;51.060;19.460;2022-11-20T01:04:13;98278.36;;;24.35;28.04
42177;BME280;28126;51.060;19.460;2022-11-20T01:07:16;98277.20;;;24.34;28.07
42177;BME280;28126;51.060;19.460;2022-11-20T01:10:18;98278.05;;;24.34;28.10
42177;BME280;28126;51.060;19.460;2022-11-20T01:13:22;98275.22;;;24.32;28.12
42177;BME280;28126;51.060;19.460;2022-11-20T01:16:44;98276.58;;;24.32;28.13
42177;BME280;28126;51.060;19.460;2022-11-20T01:19:50;98276.82;;;24.30;28.18
42177;BME280;28126;51.060;19.460;2022-11-20T01:22:53;98278.39;;;24.29;28.22
42177;BME280;28126;51.060;19.460;2022-11-20T01:25:55;98274.31;;;24.29;28.21
42177;BME280;28126;51.060;19.460;2022-11-20T01:28:59;98271.91;;;24.30;28.24
42177;BME280;28126;51.060;19.460;2022-11-20T01:32:02;98267.00;;;24.29;28.25
42177;BME280;28126;51.060;19.460;2022-11-20T01:35:07;98267.21;;;24.28;28.30
42177;BME280;28126;51.060;19.460;2022-11-20T01:38:11;98273.69;;;24.27;28.28
42177;BME280;28126;51.060;19.460;2022-11-20T01:41:15;98272.85;;;24.26;28.31
42177;BME280;28126;51.060;19.460;2022-11-20T01:44:55;98266.58;;;24.26;28.34
42177;BME280;28126;51.060;19.460;2022-11-20T01:47:58;98265.47;;;24.24;28.34
42177;BME280;28126;51.060;19.460;2022-11-20T01:51:01;98272.98;;;24.22;28.35
42177;BME280;28126;51.060;19.460;2022-11-20T01:54:15;98267.03;;;24.23;28.34
42177;BME280;28126;51.060;19.460;2022-11-20T01:57:19;98268.08;;;24.21;28.40
42177;BME280;28126;51.060;19.460;2022-11-20T02:00:22;98268.80;;;24.19;28.42
42177;BME280;28126;51.060;19.460;2022-11-20T02:03:25;98266.92;;;24.20;28.40
42177;BME280;28126;51.060;19.460;2022-11-20T02:07:15;98265.25;;;24.19;28.50
42177;BME280;28126;51.060;19.460;2022-11-20T02:09:34;98263.37;;;24.19;28.46
42177;BME280;28126;51.060;19.460;2022-11-20T02:12:36;98263.27;;;24.17;28.50
42177;BME280;28126;51.060;19.460;2022-11-20T02:15:58;98255.75;;;24.19;28.42
42177;BME280;28126;51.060;19.460;2022-11-20T02:19:04;98254.11;;;24.18;28.46
42177;BME280;28126;51.060;19.460;2022-11-20T02:22:14;98246.45;;;24.17;28.47
42177;BME280;28126;51.060;19.460;2022-11-20T02:25:18;98247.32;;;24.18;28.49
42177;BME280;28126;51.060;19.460;2022-11-20T02:28:23;98248.86;;;24.16;28.52
42177;BME280;28126;51.060;19.460;2022-11-20T02:31:26;98242.07;;;24.16;28.51
42177;BME280;28126;51.060;19.460;2022-11-20T02:34:30;98248.86;;;24.16;28.52
42177;BME280;28126;51.060;19.460;2022-11-20T02:37:36;98246.14;;;24.16;28.52
42177;BME280;28126;51.060;19.460;2022-11-20T02:40:40;98244.78;;;24.16;28.53
42177;BME280;28126;51.060;19.460;2022-11-20T02:43:44;98246.14;;;24.16;28.59
42177;BME280;28126;51.060;19.460;2022-11-20T02:46:48;98248.02;;;24.16;28.55
42177;BME280;28126;51.060;19.460;2022-11-20T02:49:50;98255.33;;;24.15;28.53
42177;BME280;28126;51.060;19.460;2022-11-20T02:52:52;98258.88;;;24.16;28.55
42177;BME280;28126;51.060;19.460;2022-11-20T02:55:56;98259.41;;;24.15;28.58
42177;BME280;28126;51.060;19.460;2022-11-20T02:58:58;98258.56;;;24.15;28.56
42177;BME280;28126;51.060;19.460;2022-11-20T03:02:00;98257.73;;;24.14;28.57
42177;BME280;28126;51.060;19.460;2022-11-20T03:05:02;98252.30;;;24.14;28.58
42177;BME280;28126;51.060;19.460;2022-11-20T03:08:05;98251.47;;;24.14;28.60
42177;BME280;28126;51.060;19.460;2022-11-20T03:11:09;98258.56;;;24.15;28.60
42177;BME280;28126;51.060;19.460;2022-11-20T03:14:11;98251.26;;;24.15;28.59
42177;BME280;28126;51.060;19.460;2022-11-20T03:17:13;98250.94;;;24.14;28.63
42177;BME280;28126;51.060;19.460;2022-11-20T03:20:16;98242.80;;;24.14;28.61
42177;BME280;28126;51.060;19.460;2022-11-20T03:23:18;98244.67;;;24.14;28.63
42177;BME280;28126;51.060;19.460;2022-11-20T03:26:24;98246.35;;;24.15;28.63
42177;BME280;28126;51.060;19.460;2022-11-20T03:29:28;98246.35;;;24.15;28.61
42177;BME280;28126;51.060;19.460;2022-11-20T03:32:30;98242.80;;;24.14;28.61
42177;BME280;28126;51.060;19.460;2022-11-20T03:35:34;98242.80;;;24.14;28.60
42177;BME280;28126;51.060;19.460;2022-11-20T03:38:36;98249.59;;;24.14;28.63
42177;BME280;28126;51.060;19.460;2022-11-20T03:41:40;98252.54;;;24.13;28.69
42177;BME280;28126;51.060;19.460;2022-11-20T03:44:43;98248.23;;;24.14;28.63
42177;BME280;28126;51.060;19.460;2022-11-20T03:47:46;98249.06;;;24.15;28.61
42177;BME280;28126;51.060;19.460;2022-11-20T03:50:49;98242.80;;;24.14;28.58
42177;BME280;28126;51.060;19.460;2022-11-20T03:53:54;98238.97;;;24.13;28.61
42177;BME280;28126;51.060;19.460;2022-11-20T03:56:58;98235.10;;;24.11;28.66
42177;BME280;28126;51.060;19.460;2022-11-20T04:00:00;98244.29;;;24.10;28.66
42177;BME280;28126;51.060;19.460;2022-11-20T04:03:03;98249.41;;;24.09;28.64
42177;BME280;28126;51.060;19.460;2022-11-20T04:06:16;98248.56;;;24.09;28.66
42177;BME280;28126;51.060;19.460;2022-11-20T04:09:18;98256.50;;;24.10;28.59
42177;BME280;28126;51.060;19.460;2022-11-20T04:12:20;98247.21;;;24.09;28.62
42177;BME280;28126;51.060;19.460;2022-11-20T04:15:23;98249.92;;;24.09;28.59
42177;BME280;28126;51.060;19.460;2022-11-20T04:18:26;98256.19;;;24.09;28.62
42177;BME280;28126;51.060;19.460;2022-11-20T04:21:29;98252.44;;;24.10;28.63
42177;BME280;28126;51.060;19.460;2022-11-20T04:24:31;98257.86;;;24.10;28.66
42177;BME280;28126;51.060;19.460;2022-11-20T04:27:33;98258.38;;;24.10;28.62
42177;BME280;28126;51.060;19.460;2022-11-20T04:30:36;98258.91;;;24.09;28.64
42177;BME280;28126;51.060;19.460;2022-11-20T04:33:39;98263.61;;;24.11;28.66
42177;BME280;28126;51.060;19.460;2022-11-20T04:36:41;98260.58;;;24.10;28.66
42177;BME280;28126;51.060;19.460;2022-11-20T04:39:44;98257.55;;;24.09;28.60
42177;BME280;28126;51.060;19.460;2022-11-20T04:42:47;98247.53;;;24.10;28.63
42177;BME280;28126;51.060;19.460;2022-11-20T04:45:54;98246.69;;;24.09;28.62
42177;BME280;28126;51.060;19.460;2022-11-20T04:48:59;98239.91;;;24.09;28.63
42177;BME280;28126;51.060;19.460;2022-11-20T04:52:02;98236.80;;;24.06;28.68
42177;BME280;28126;51.060;19.460;2022-11-20T04:55:06;98233.84;;;24.07;28.65
42177;BME280;28126;51.060;19.460;2022-11-20T04:58:08;98230.33;;;24.07;28.65
42177;BME280;28126;51.060;19.460;2022-11-20T05:01:18;98226.26;;;24.07;28.69
42177;BME280;28126;51.060;19.460;2022-11-20T05:04:20;98231.13;;;24.07;28.68
42177;BME280;28126;51.060;19.460;2022-11-20T05:07:23;98229.25;;;24.08;28.69
42177;BME280;28126;51.060;19.460;2022-11-20T05:10:26;98226.26;;;24.07;28.68
42177;BME280;28126;51.060;19.460;2022-11-20T05:13:28;98223.55;;;24.07;28.65
42177;BME280;28126;51.060;19.460;2022-11-20T05:16:30;98217.03;;;24.08;28.67
42177;BME280;28126;51.060;19.460;2022-11-20T05:19:33;98215.40;;;24.07;28.69
42177;BME280;28126;51.060;19.460;2022-11-20T05:22:35;98212.38;;;24.06;28.67
42177;BME280;28126;51.060;19.460;2022-11-20T05:25:37;98210.49;;;24.06;28.67
42177;BME280;28126;51.060;19.460;2022-11-20T05:28:40;98204.54;;;24.07;28.66
42177;BME280;28126;51.060;19.460;2022-11-20T05:31:42;98207.25;;;24.07;28.67
42177;BME280;28126;51.060;19.460;2022-11-20T05:34:45;98207.54;;;24.08;28.68
42177;BME280;28126;51.060;19.460;2022-11-20T05:37:48;98201.27;;;24.07;28.67
42177;BME280;28126;51.060;19.460;2022-11-20T05:40:51;98203.19;;;24.07;28.72
42177;BME280;28126;51.060;19.460;2022-11-20T05:43:56;98199.63;;;24.06;28.75
42177;BME280;28126;51.060;19.460;2022-11-20T05:46:58;98207.54;;;24.08;28.74
42177;BME280;28126;51.060;19.460;2022-11-20T05:50:02;98203.70;;;24.06;28.69
42177;BME280;28126;51.060;19.460;2022-11-20T05:53:04;98207.25;;;24.07;28.68
42177;BME280;28126;51.060;19.460;2022-11-20T05:56:10;98203.98;;;24.07;28.67
42177;BME280;28126;51.060;19.460;2022-11-20T05:59:13;98199.11;;;24.07;28.68
42177;BME280;28126;51.060;19.460;2022-11-20T06:02:16;98200.36;;;24.04;28.69
42177;BME280;28126;51.060;19.460;2022-11-20T06:05:18;98206.70;;;24.07;28.69
42177;BME280;28126;51.060;19.460;2022-11-20T06:08:20;98199.11;;;24.07;28.68
42177;BME280;28126;51.060;19.460;2022-11-20T06:11:24;98201.83;;;24.07;28.69
42177;BME280;28126;51.060;19.460;2022-11-20T06:14:26;98211.33;;;24.07;28.70
42177;BME280;28126;51.060;19.460;2022-11-20T06:17:28;98208.61;;;24.07;28.69
42177;BME280;28126;51.060;19.460;2022-11-20T06:20:32;98213.48;;;24.07;28.68
42177;BME280;28126;51.060;19.460;2022-11-20T06:23:36;98209.13;;;24.06;28.61
42177;BME280;28126;51.060;19.460;2022-11-20T06:26:39;98205.90;;;24.07;28.56
42177;BME280;28126;51.060;19.460;2022-11-20T06:29:42;98205.06;;;24.06;28.86
42177;BME280;28126;51.060;19.460;2022-11-20T06:32:45;98204.82;;;24.08;28.88
42177;BME280;28126;51.060;19.460;2022-11-20T06:35:47;98206.18;;;24.08;28.88
42177;BME280;28126;51.060;19.460;2022-11-20T06:38:50;98199.63;;;24.06;28.79
42177;BME280;28126;51.060;19.460;2022-11-20T06:41:52;98205.90;;;24.07;28.86
42177;BME280;28126;51.060;19.460;2022-11-20T06:44:53;98206.18;;;24.08;28.87
42177;BME280;28126;51.060;19.460;2022-11-20T06:47:57;98205.14;;;24.09;28.89
42177;BME280;28126;51.060;19.460;2022-11-20T06:51:00;98203.88;;;24.11;28.94
42177;BME280;28126;51.060;19.460;2022-11-20T06:54:05;98200.33;;;24.11;29.04
42177;BME280;28126;51.060;19.460;2022-11-20T06:57:08;98194.17;;;24.13;29.39
42177;BME280;28126;51.060;19.460;2022-11-20T07:00:12;98185.79;;;24.14;29.80
42177;BME280;28126;51.060;19.460;2022-11-20T07:03:14;98188.30;;;24.16;29.95
42177;BME280;28126;51.060;19.460;2022-11-20T07:06:17;98189.78;;;24.18;30.04
42177;BME280;28126;51.060;19.460;2022-11-20T07:09:20;98184.64;;;24.19;29.95
42177;BME280;28126;51.060;19.460;2022-11-20T07:12:22;98179.83;;;24.21;29.97
42177;BME280;28126;51.060;19.460;2022-11-20T07:15:26;98184.22;;;24.23;29.97
42177;BME280;28126;51.060;19.460;2022-11-20T07:18:28;98190.80;;;24.24;29.85
42177;BME280;28126;51.060;19.460;2022-11-20T07:21:31;98186.20;;;24.25;29.86
42177;BME280;28126;51.060;19.460;2022-11-20T07:24:34;98185.95;;;24.26;29.86
42177;BME280;28126;51.060;19.460;2022-11-20T07:27:36;98182.72;;;24.27;29.75
42177;BME280;28126;51.060;19.460;2022-11-20T07:30:39;98176.25;;;24.28;29.82
42177;BME280;28126;51.060;19.460;2022-11-20T07:33:41;98173.31;;;24.29;29.65
42177;BME280;28126;51.060;19.460;2022-11-20T07:36:44;98171.44;;;24.30;29.63
42177;BME280;28126;51.060;19.460;2022-11-20T07:39:47;98171.20;;;24.31;29.69
42177;BME280;28126;51.060;19.460;2022-11-20T07:42:50;98175.58;;;24.32;29.71
42177;BME280;28126;51.060;19.460;2022-11-20T07:45:59;98171.82;;;24.33;29.68
42177;BME280;28126;51.060;19.460;2022-11-20T07:49:02;98169.63;;;24.33;29.76
42177;BME280;28126;51.060;19.460;2022-11-20T07:52:04;98160.86;;;24.31;29.73
42177;BME280;28126;51.060;19.460;2022-11-20T07:55:09;98161.80;;;24.34;29.54
42177;BME280;28126;51.060;19.460;2022-11-20T07:58:11;98163.67;;;24.33;29.56
42177;BME280;28126;51.060;19.460;2022-11-20T08:01:16;98166.17;;;24.35;29.55
42177;BME280;28126;51.060;19.460;2022-11-20T08:04:19;98153.95;;;24.35;29.54
42177;BME280;28126;51.060;19.460;2022-11-20T08:07:21;98162.41;;;24.36;29.62
42177;BME280;28126;51.060;19.460;2022-11-20T08:10:23;98159.39;;;24.35;29.59
42177;BME280;28126;51.060;19.460;2022-11-20T08:13:27;98154.27;;;24.36;29.52
42177;BME280;28126;51.060;19.460;2022-11-20T08:16:49;98152.14;;;24.38;29.59
42177;BME280;28126;51.060;19.460;2022-11-20T08:19:52;98156.43;;;24.36;29.53
42177;BME280;28126;51.060;19.460;2022-11-20T08:23:04;98152.45;;;24.39;29.50
42177;BME280;28126;51.060;19.460;2022-11-20T08:26:04;98147.02;;;24.39;29.49
42177;BME280;28126;51.060;19.460;2022-11-20T08:29:06;98148.38;;;24.39;29.54
42177;BME280;28126;51.060;19.460;2022-11-20T08:32:09;98149.31;;;24.42;29.48
42177;BME280;28126;51.060;19.460;2022-11-20T08:35:13;98141.97;;;24.42;29.53
42177;BME280;28126;51.060;19.460;2022-11-20T08:38:16;98143.95;;;24.44;29.46
42177;BME280;28126;51.060;19.460;2022-11-20T08:41:20;98146.14;;;24.45;29.48
42177;BME280;28126;51.060;19.460;2022-11-20T08:44:26;98145.09;;;24.46;29.51
42177;BME280;28126;51.060;19.460;2022-11-20T08:47:30;98151.89;;;24.46;29.56
42177;BME280;28126;51.060;19.460;2022-11-20T08:50:32;98150.84;;;24.47;29.48
42177;BME280;28126;51.060;19.460;2022-11-20T08:53:35;98145.41;;;24.47;29.56
42177;BME280;28126;51.060;19.460;2022-11-20T08:56:37;98152.48;;;24.48;29.53
42177;BME280;28126;51.060;19.460;2022-11-20T08:59:40;98151.22;;;24.50;29.56
42177;BME280;28126;51.060;19.460;2022-11-20T09:02:43;98151.22;;;24.50;29.53
42177;BME280;28126;51.060;19.460;2022-11-20T09:05:45;98141.72;;;24.50;29.47
42177;BME280;28126;51.060;19.460;2022-11-20T09:08:51;98147.52;;;24.54;29.51
42177;BME280;28126;51.060;19.460;2022-11-20T09:11:51;98148.36;;;24.54;29.51
42177;BME280;28126;51.060;19.460;2022-11-20T09:14:56;98146.78;;;24.56;29.47
42177;BME280;28126;51.060;19.460;2022-11-20T09:18:01;98144.38;;;24.57;29.52
42177;BME280;28126;51.060;19.460;2022-11-20T09:21:07;98140.83;;;24.56;29.60
42177;BME280;28126;51.060;19.460;2022-11-20T09:24:10;98148.98;;;24.56;29.50
42177;BME280;28126;51.060;19.460;2022-11-20T09:27:13;98151.70;;;24.56;29.48
42177;BME280;28126;51.060;19.460;2022-11-20T09:30:16;98145.22;;;24.57;29.65
42177;BME280;28126;51.060;19.460;2022-11-20T09:33:19;98142.71;;;24.56;29.60
42177;BME280;28126;51.060;19.460;2022-11-20T09:36:22;98141.81;;;24.53;29.61
42177;BME280;28126;51.060;19.460;2022-11-20T09:39:24;98143.97;;;24.53;29.52
42177;BME280;28126;51.060;19.460;2022-11-20T09:42:41;98140.66;;;24.51;29.54
42177;BME280;28126;51.060;19.460;2022-11-20T09:46:28;98137.11;;;24.51;29.50
42177;BME280;28126;51.060;19.460;2022-11-20T09:56:29;98129.18;;;24.49;29.60
42177;BME280;28126;51.060;19.460;2022-11-20T09:59:45;98113.65;;;24.47;29.26
42177;BME280;28126;51.060;19.460;2022-11-20T10:02:59;98112.29;;;24.47;29.63
42177;BME280;28126;51.060;19.460;2022-11-20T10:06:04;98107.14;;;24.48;29.63
42177;BME280;28126;51.060;19.460;2022-11-20T10:09:30;98108.50;;;24.48;29.87
42177;BME280;28126;51.060;19.460;2022-11-20T10:16:18;98116.74;;;24.51;29.94
42177;BME280;28126;51.060;19.460;2022-11-20T10:26:50;98100.88;;;24.48;29.81
42177;BME280;28126;51.060;19.460;2022-11-20T10:30:14;98094.70;;;24.50;32.04
42177;BME280;28126;51.060;19.460;2022-11-20T10:33:21;98085.20;;;24.50;33.17
42177;BME280;28126;51.060;19.460;2022-11-20T10:36:28;98081.64;;;24.49;33.59
42177;BME280;28126;51.060;19.460;2022-11-20T10:39:42;98083.98;;;24.46;33.86
42177;BME280;28126;51.060;19.460;2022-11-20T10:42:56;98086.18;;;24.46;34.18
42177;BME280;28126;51.060;19.460;2022-11-20T10:46:15;98079.60;;;24.45;34.58
42177;BME280;28126;51.060;19.460;2022-11-20T10:49:20;98081.63;;;24.40;34.82
42177;BME280;28126;51.060;19.460;2022-11-20T10:53:02;98083.20;;;24.39;35.10
42177;BME280;28126;51.060;19.460;2022-11-20T10:56:14;98073.08;;;24.37;35.43
42177;BME280;28126;51.060;19.460;2022-11-20T11:06:08;98076.61;;;24.28;36.02
42177;BME280;28126;51.060;19.460;2022-11-20T11:09:19;98078.49;;;24.28;35.80
42177;BME280;28126;51.060;19.460;2022-11-20T11:12:25;98074.05;;;24.24;35.91
42177;BME280;28126;51.060;19.460;2022-11-20T11:15:39;98069.97;;;24.24;36.42
42177;BME280;28126;51.060;19.460;2022-11-20T11:18:41;98069.04;;;24.21;37.06
42177;BME280;28126;51.060;19.460;2022-11-20T11:21:55;98071.54;;;24.23;38.11
42177;BME280;28126;51.060;19.460;2022-11-20T11:24:58;98069.66;;;24.23;38.48
42177;BME280;28126;51.060;19.460;2022-11-20T11:28:21;98059.84;;;24.22;38.97
42177;BME280;28126;51.060;19.460;2022-11-20T11:31:33;98059.63;;;24.24;38.99
42177;BME280;28126;51.060;19.460;2022-11-20T11:34:36;98060.83;;;24.18;38.24
42177;BME280;28126;51.060;19.460;2022-11-20T11:37:39;98061.20;;;24.22;36.90
42177;BME280;28126;51.060;19.460;2022-11-20T11:40:41;98056.16;;;24.26;34.53
42177;BME280;28126;51.060;19.460;2022-11-20T11:43:53;98057.08;;;24.29;33.04
42177;BME280;28126;51.060;19.460;2022-11-20T11:50:30;98037.09;;;24.32;32.31
42177;BME280;28126;51.060;19.460;2022-11-20T11:53:33;98026.63;;;24.36;31.95
42177;BME280;28126;51.060;19.460;2022-11-20T11:56:38;98022.62;;;24.38;34.46
42177;BME280;28126;51.060;19.460;2022-11-20T12:00:03;98024.14;;;24.43;36.20
42177;BME280;28126;51.060;19.460;2022-11-20T12:03:28;98018.49;;;24.45;36.99
42177;BME280;28126;51.060;19.460;2022-11-20T12:06:29;98012.44;;;24.43;37.53
42177;BME280;28126;51.060;19.460;2022-11-20T12:09:37;98011.39;;;24.44;38.33
42177;BME280;28126;51.060;19.460;2022-11-20T12:12:44;98011.70;;;24.45;38.27
42177;BME280;28126;51.060;19.460;2022-11-20T12:15:47;98011.61;;;24.42;36.64
42177;BME280;28126;51.060;19.460;2022-11-20T12:18:52;98011.14;;;24.36;35.33
42177;BME280;28126;51.060;19.460;2022-11-20T12:25:31;98011.45;;;24.28;35.36
42177;BME280;28126;51.060;19.460;2022-11-20T12:28:42;97993.76;;;24.19;35.90
42177;BME280;28126;51.060;19.460;2022-11-20T12:31:52;97986.97;;;24.19;37.72
42177;BME280;28126;51.060;19.460;2022-11-20T12:49:24;97957.72;;;24.21;39.89
42177;BME280;28126;51.060;19.460;2022-11-20T12:52:48;97962.62;;;24.21;40.09
42177;BME280;28126;51.060;19.460;2022-11-20T12:59:45;97955.69;;;24.26;40.18
42177;BME280;28126;51.060;19.460;2022-11-20T13:06:16;97949.00;;;24.28;40.37
42177;BME280;28126;51.060;19.460;2022-11-20T13:09:21;97946.28;;;24.28;40.29
42177;BME280;28126;51.060;19.460;2022-11-20T13:12:40;97952.08;;;24.32;40.56
42177;BME280;28126;51.060;19.460;2022-11-20T13:16:06;97950.50;;;24.33;40.64
42177;BME280;28126;51.060;19.460;2022-11-20T13:19:13;97950.81;;;24.34;40.62
42177;BME280;28126;51.060;19.460;2022-11-20T13:22:41;97944.23;;;23.99;40.09
42177;BME280;28126;51.060;19.460;2022-11-20T13:25:38;97947.85;;;24.27;41.05
42177;BME280;28126;51.060;19.460;2022-11-20T13:28:41;97943.19;;;24.34;40.17
42177;BME280;28126;51.060;19.460;2022-11-20T13:31:46;97932.48;;;24.39;39.39
42177;BME280;28126;51.060;19.460;2022-11-20T13:35:01;97937.02;;;24.45;38.50
42177;BME280;28126;51.060;19.460;2022-11-20T13:38:15;97932.25;;;24.49;38.13
42177;BME280;28126;51.060;19.460;2022-11-20T13:41:34;97927.22;;;24.53;37.97
42177;BME280;28126;51.060;19.460;2022-11-20T13:44:47;97924.25;;;24.54;38.12
42177;BME280;28126;51.060;19.460;2022-11-20T13:47:50;97921.09;;;24.57;37.81
42177;BME280;28126;51.060;19.460;2022-11-20T14:01:34;97911.05;;;24.67;37.01
42177;BME280;28126;51.060;19.460;2022-11-20T14:04:39;97909.99;;;24.68;37.07
42177;BME280;28126;51.060;19.460;2022-11-20T14:07:42;97908.78;;;24.73;36.78
42177;BME280;28126;51.060;19.460;2022-11-20T14:10:44;97903.66;;;24.74;36.98
42177;BME280;28126;51.060;19.460;2022-11-20T14:14:02;97911.11;;;24.79;37.23
42177;BME280;28126;51.060;19.460;2022-11-20T14:17:35;97907.34;;;24.80;37.25
42177;BME280;28126;51.060;19.460;2022-11-20T14:20:30;97904.63;;;24.80;37.76
42177;BME280;28126;51.060;19.460;2022-11-20T14:23:32;97906.81;;;24.80;38.47
42177;BME280;28126;51.060;19.460;2022-11-20T14:26:35;97901.38;;;24.80;37.85
42177;BME280;28126;51.060;19.460;2022-11-20T14:29:39;97901.69;;;24.81;38.78
42177;BME280;28126;51.060;19.460;2022-11-20T14:32:46;97889.45;;;24.81;38.67
42177;BME280;28126;51.060;19.460;2022-11-20T14:35:57;97896.30;;;24.84;38.62
42177;BME280;28126;51.060;19.460;2022-11-20T14:39:00;97892.75;;;24.83;38.50
42177;BME280;28126;51.060;19.460;2022-11-20T14:42:15;97894.42;;;24.84;38.42
42177;BME280;28126;51.060;19.460;2022-11-20T14:45:18;97892.45;;;24.82;38.35
42177;BME280;28126;51.060;19.460;2022-11-20T14:48:26;97889.15;;;24.80;38.19
42177;BME280;28126;51.060;19.460;2022-11-20T14:51:34;97884.02;;;24.81;38.09
42177;BME280;28126;51.060;19.460;2022-11-20T14:54:50;97886.34;;;24.78;38.05
42177;BME280;28126;51.060;19.460;2022-11-20T14:58:03;97881.74;;;24.78;37.83
42177;BME280;28126;51.060;19.460;2022-11-20T15:01:12;97877.09;;;24.76;37.57
42177;BME280;28126;51.060;19.460;2022-11-20T15:04:13;97875.12;;;24.74;37.48
42177;BME280;28126;51.060;19.460;2022-11-20T15:07:30;97869.27;;;24.32;38.00
42177;BME280;28126;51.060;19.460;2022-11-20T15:10:33;97867.13;;;24.61;37.76
42177;BME280;28126;51.060;19.460;2022-11-20T15:13:39;97863.68;;;24.27;38.06
42177;BME280;28126;51.060;19.460;2022-11-20T15:16:41;97864.58;;;24.57;36.56
42177;BME280;28126;51.060;19.460;2022-11-20T15:19:43;97857.63;;;24.61;37.18
42177;BME280;28126;51.060;19.460;2022-11-20T15:22:45;97859.28;;;24.62;35.83
42177;BME280;28126;51.060;19.460;2022-11-20T15:25:49;97852.49;;;24.62;35.90
42177;BME280;28126;51.060;19.460;2022-11-20T15:28:54;97856.88;;;24.63;36.11
42177;BME280;28126;51.060;19.460;2022-11-20T15:31:59;97849.56;;;24.63;36.39
42177;BME280;28126;51.060;19.460;2022-11-20T15:35:00;97848.51;;;24.65;35.48
42177;BME280;28126;51.060;19.460;2022-11-20T15:38:04;97846.37;;;24.67;34.60
42177;BME280;28126;51.060;19.460;2022-11-20T15:41:06;97851.05;;;24.69;34.49
42177;BME280;28126;51.060;19.460;2022-11-20T15:44:08;97853.24;;;24.69;35.18
42177;BME280;28126;51.060;19.460;2022-11-20T15:47:11;97857.63;;;24.70;35.51
42177;BME280;28126;51.060;19.460;2022-11-20T15:50:16;97853.02;;;24.71;33.94
42177;BME280;28126;51.060;19.460;2022-11-20T15:53:18;97855.19;;;24.71;33.73
42177;BME280;28126;51.060;19.460;2022-11-20T15:56:21;97843.79;;;24.72;33.35
42177;BME280;28126;51.060;19.460;2022-11-20T15:59:24;97843.27;;;24.72;33.26
42177;BME280;28126;51.060;19.460;2022-11-20T16:02:27;97831.87;;;24.73;33.02
42177;BME280;28126;51.060;19.460;2022-11-20T16:05:29;97834.28;;;24.72;32.71
42177;BME280;28126;51.060;19.460;2022-11-20T16:08:33;97835.89;;;24.70;32.40
42177;BME280;28126;51.060;19.460;2022-11-20T16:11:35;97834.28;;;24.72;32.19
42177;BME280;28126;51.060;19.460;2022-11-20T16:14:38;97837.52;;;24.71;32.10
42177;BME280;28126;51.060;19.460;2022-11-20T16:17:58;97842.68;;;24.70;31.65
42177;BME280;28126;51.060;19.460;2022-11-20T16:21:00;97842.68;;;24.70;31.99
42177;BME280;28126;51.060;19.460;2022-11-20T16:24:05;97846.76;;;24.70;31.46
42177;BME280;28126;51.060;19.460;2022-11-20T16:27:07;97841.02;;;24.69;31.24
42177;BME280;28126;51.060;19.460;2022-11-20T16:30:12;97849.17;;;24.69;30.86
42177;BME280;28126;51.060;19.460;2022-11-20T16:33:16;97850.22;;;24.68;30.84
42177;BME280;28126;51.060;19.460;2022-11-20T16:36:20;97847.51;;;24.68;30.78
42177;BME280;28126;51.060;19.460;2022-11-20T16:39:24;97848.03;;;24.68;30.80
42177;BME280;28126;51.060;19.460;2022-11-20T16:42:26;97848.86;;;24.68;30.69
42177;BME280;28126;51.060;19.460;2022-11-20T16:45:28;97846.89;;;24.66;30.63
42177;BME280;28126;51.060;19.460;2022-11-20T16:48:29;97850.97;;;24.66;30.45
42177;BME280;28126;51.060;19.460;2022-11-20T16:51:36;97845.23;;;24.65;30.49
42177;BME280;28126;51.060;19.460;2022-11-20T16:54:37;97846.37;;;24.67;32.73
42177;BME280;28126;51.060;19.460;2022-11-20T16:57:40;97845.53;;;24.66;33.41
42177;BME280;28126;51.060;19.460;2022-11-20T17:00:43;97848.20;;;24.63;33.75
42177;BME280;28126;51.060;19.460;2022-11-20T17:03:53;97844.56;;;24.60;34.12
42177;BME280;28126;51.060;19.460;2022-11-20T17:06:51;97849.11;;;24.57;34.71
42177;BME280;28126;51.060;19.460;2022-11-20T17:09:53;97843.23;;;24.51;35.44
42177;BME280;28126;51.060;19.460;2022-11-20T17:12:55;97843.45;;;24.50;36.19
42177;BME280;28126;51.060;19.460;2022-11-20T17:16:10;97836.00;;;24.45;36.79